RPC1024 RPUH-RPUM

Flight info

Callsign RPC1024
Flight time N/A
Altitude 4000
Route SAJ W3 TELEN
Aircraft C172/L-SFG/C

Departure

Time 2026-05-01 08:01
Airport San Jose Airport (RPUH)

Arrival

Time N/A
Airport Mamburao Airport (RPUM)
Time Latitude Longitude Altitude Speed Heading
2026-05-01 07:49 12.36028 121.04623 33 ft 0 kts 17°
2026-05-01 07:55 12.36029 121.04624 33 ft 1 kts 18°
2026-05-01 07:56 12.36099 121.04582 34 ft 8 kts 300°
2026-05-01 07:56 12.36137 121.04479 33 ft 5 kts 335°
2026-05-01 07:57 12.36154 121.04472 33 ft 0 kts 337°
2026-05-01 07:57 12.36208 121.04435 33 ft 8 kts 311°
2026-05-01 07:58 12.36258 121.04266 32 ft 16 kts 283°
2026-05-01 07:58 12.36284 121.04153 31 ft 0 kts 19°
2026-05-01 07:59 12.36291 121.04159 31 ft 1 kts 46°
2026-05-01 07:59 12.36295 121.04167 31 ft 2 kts 119°
2026-05-01 08:00 12.35871 121.05482 437 ft 55 kts 82°
2026-05-01 08:01 12.36534 121.05466 895 ft 64 kts 310°
2026-05-01 08:01 12.36768 121.05075 1031 ft 65 kts 314°
2026-05-01 08:01 12.37024 121.04700 1171 ft 64 kts 318°
2026-05-01 08:02 12.37596 121.04009 1445 ft 63 kts 324°
2026-05-01 08:02 12.37902 121.03690 1589 ft 62 kts 328°
2026-05-01 08:03 12.38543 121.03085 1868 ft 62 kts 332°
2026-05-01 08:03 12.38870 121.02802 2007 ft 61 kts 333°
2026-05-01 08:03 12.39586 121.02237 2253 ft 68 kts 332°
2026-05-01 08:04 12.40356 121.01672 2549 ft 68 kts 334°
2026-05-01 08:04 12.41146 121.01120 2836 ft 69 kts 336°
2026-05-01 08:05 12.41961 121.00573 3121 ft 70 kts 336°
2026-05-01 08:05 12.42378 121.00299 3264 ft 70 kts 338°
2026-05-01 08:05 12.42792 121.00030 3400 ft 71 kts 337°
2026-05-01 08:06 12.43644 120.99483 3676 ft 72 kts 336°
2026-05-01 08:06 12.44494 120.98939 3944 ft 73 kts 338°
2026-05-01 08:07 12.45550 120.98305 3984 ft 102 kts 338°
2026-05-01 08:07 12.46877 120.97514 3971 ft 114 kts 337°
2026-05-01 08:08 12.47563 120.97098 3967 ft 116 kts 336°
2026-05-01 08:08 12.48964 120.96241 3968 ft 117 kts 335°
2026-05-01 08:09 12.50372 120.95370 3971 ft 117 kts 335°
2026-05-01 08:09 12.51079 120.94932 3975 ft 118 kts 335°
2026-05-01 08:09 12.51776 120.94499 3975 ft 118 kts 335°
2026-05-01 08:10 12.53147 120.93648 3975 ft 117 kts 334°
2026-05-01 08:10 12.54545 120.92777 3979 ft 117 kts 335°
2026-05-01 08:11 12.55950 120.91903 3978 ft 118 kts 335°
2026-05-01 08:11 12.57362 120.91022 3981 ft 118 kts 335°
2026-05-01 08:12 12.58765 120.90148 3986 ft 118 kts 335°
2026-05-01 08:12 12.59474 120.89705 3987 ft 118 kts 335°
2026-05-01 08:12 12.60881 120.88829 3987 ft 119 kts 335°
2026-05-01 08:13 12.61594 120.88384 3987 ft 119 kts 335°
2026-05-01 08:13 12.62302 120.87942 3986 ft 118 kts 335°
2026-05-01 08:13 12.63707 120.87067 3992 ft 117 kts 334°
2026-05-01 08:14 12.64411 120.86627 4000 ft 116 kts 334°
2026-05-01 08:14 12.65100 120.86197 4006 ft 116 kts 334°
2026-05-01 08:14 12.65789 120.85767 4010 ft 116 kts 334°
2026-05-01 08:14 12.66484 120.85334 4007 ft 117 kts 334°
2026-05-01 08:15 12.67193 120.84891 4005 ft 118 kts 335°
2026-05-01 08:15 12.68610 120.84008 3997 ft 118 kts 334°
2026-05-01 08:15 12.69313 120.83570 3999 ft 118 kts 334°
2026-05-01 08:16 12.70018 120.83130 4000 ft 118 kts 334°
2026-05-01 08:16 12.70719 120.82692 4000 ft 118 kts 334°
2026-05-01 08:16 12.71424 120.82252 4000 ft 118 kts 334°
2026-05-01 08:16 12.72127 120.81814 3999 ft 118 kts 333°
2026-05-01 08:17 12.72828 120.81377 3999 ft 117 kts 333°
2026-05-01 08:17 12.73532 120.80936 3996 ft 117 kts 333°
2026-05-01 08:17 12.74234 120.80497 3996 ft 117 kts 334°
2026-05-01 08:17 12.74930 120.80063 3998 ft 117 kts 333°
2026-05-01 08:18 12.75628 120.79627 3994 ft 117 kts 334°
2026-05-01 08:18 12.77021 120.78757 3994 ft 117 kts 334°
2026-05-01 08:19 12.78431 120.77876 3993 ft 118 kts 334°
2026-05-01 08:19 12.79139 120.77434 3993 ft 118 kts 334°
2026-05-01 08:19 12.79843 120.76994 3993 ft 118 kts 334°
2026-05-01 08:19 12.80547 120.76556 3990 ft 118 kts 333°
2026-05-01 08:20 12.81252 120.76115 3984 ft 117 kts 333°
2026-05-01 08:20 12.81958 120.75674 3982 ft 117 kts 333°
2026-05-01 08:20 12.82655 120.75239 3977 ft 117 kts 333°
2026-05-01 08:20 12.83348 120.74805 3979 ft 117 kts 333°
2026-05-01 08:21 12.84046 120.74369 3973 ft 117 kts 333°
2026-05-01 08:21 12.84744 120.73933 3973 ft 117 kts 333°
2026-05-01 08:21 12.85439 120.73499 3975 ft 117 kts 332°
2026-05-01 08:21 12.86134 120.73064 3980 ft 117 kts 333°
2026-05-01 08:22 12.86846 120.72620 3977 ft 118 kts 333°
2026-05-01 08:22 12.87550 120.72180 3974 ft 118 kts 334°
2026-05-01 08:22 12.88247 120.71750 3972 ft 118 kts 333°
2026-05-01 08:22 12.88969 120.71356 3977 ft 116 kts 342°
2026-05-01 08:23 12.89742 120.71080 3978 ft 117 kts 346°
2026-05-01 08:23 12.90519 120.70820 3976 ft 117 kts 346°
2026-05-01 08:23 12.91301 120.70561 3966 ft 117 kts 346°
2026-05-01 08:23 12.92069 120.70303 3965 ft 116 kts 346°
2026-05-01 08:24 12.92839 120.70046 3959 ft 116 kts 346°
2026-05-01 08:24 12.93605 120.69789 3950 ft 115 kts 346°
2026-05-01 08:24 12.94382 120.69529 3944 ft 116 kts 346°
2026-05-01 08:24 12.95149 120.69271 3950 ft 115 kts 346°
2026-05-01 08:25 12.95917 120.69013 3952 ft 115 kts 347°
2026-05-01 08:25 12.96681 120.68757 3950 ft 115 kts 346°
2026-05-01 08:25 12.97454 120.68498 3954 ft 115 kts 347°
2026-05-01 08:25 12.98212 120.68244 3951 ft 115 kts 346°
2026-05-01 08:26 12.98993 120.67982 3950 ft 116 kts 346°
2026-05-01 08:26 12.99761 120.67725 3946 ft 116 kts 346°
2026-05-01 08:26 13.00540 120.67465 3893 ft 120 kts 345°
2026-05-01 08:26 13.01351 120.67195 3818 ft 123 kts 345°
2026-05-01 08:27 13.02177 120.66920 3742 ft 124 kts 345°
2026-05-01 08:27 13.03000 120.66645 3652 ft 125 kts 345°
2026-05-01 08:27 13.03840 120.66363 3555 ft 126 kts 345°
2026-05-01 08:27 13.04673 120.66084 3460 ft 126 kts 345°
2026-05-01 08:28 13.05518 120.65801 3364 ft 126 kts 345°
2026-05-01 08:28 13.06354 120.65520 3267 ft 126 kts 345°
2026-05-01 08:28 13.07189 120.65241 3168 ft 126 kts 345°
2026-05-01 08:28 13.08019 120.64962 3076 ft 126 kts 345°
2026-05-01 08:29 13.08862 120.64679 2985 ft 126 kts 345°
2026-05-01 08:29 13.09693 120.64400 2894 ft 126 kts 345°
2026-05-01 08:29 13.10532 120.64119 2807 ft 125 kts 345°
2026-05-01 08:29 13.11321 120.63854 2726 ft 125 kts 344°
2026-05-01 08:30 13.12141 120.63579 2635 ft 125 kts 344°
2026-05-01 08:30 13.12973 120.63300 2544 ft 125 kts 343°
2026-05-01 08:30 13.13801 120.63020 2452 ft 124 kts 344°
2026-05-01 08:30 13.14630 120.62751 2316 ft 128 kts 346°
2026-05-01 08:31 13.15506 120.62502 2154 ft 128 kts 347°